createdAt,value
2018-11-27T00:00:15.297Z,8.80
2018-11-27T00:01:15.262Z,9.40
2018-11-27T00:02:15.228Z,9.50
2018-11-27T00:03:15.195Z,9.80
2018-11-27T00:04:15.162Z,9.40
2018-11-27T00:05:15.126Z,9.90
2018-11-27T00:06:15.094Z,9.10
2018-11-27T00:07:15.059Z,8.70
2018-11-27T00:08:15.024Z,9.50
2018-11-27T00:09:14.993Z,9.70
2018-11-27T00:10:14.959Z,10.40
2018-11-27T00:11:14.926Z,9.30
2018-11-27T00:12:14.893Z,9.50
2018-11-27T00:13:14.859Z,10.00
2018-11-27T00:14:14.823Z,10.40
2018-11-27T00:15:14.791Z,11.20
2018-11-27T00:16:14.755Z,10.20
2018-11-27T00:17:14.724Z,11.00
2018-11-27T00:18:14.688Z,11.30
2018-11-27T00:19:14.657Z,10.90
2018-11-27T00:20:14.627Z,11.70
2018-11-27T00:21:14.587Z,11.10
2018-11-27T00:22:14.553Z,11.40
2018-11-27T00:23:14.523Z,11.00
2018-11-27T00:24:14.484Z,11.30
2018-11-27T00:25:14.451Z,10.20
2018-11-27T00:26:14.417Z,10.40
2018-11-27T00:27:14.385Z,10.20
2018-11-27T00:28:14.351Z,10.00
2018-11-27T00:29:14.316Z,10.50
2018-11-27T00:30:14.282Z,10.20
2018-11-27T00:31:14.251Z,11.10
2018-11-27T00:32:14.213Z,11.10
2018-11-27T00:33:14.181Z,11.20
2018-11-27T00:34:14.150Z,10.60
2018-11-27T00:35:14.114Z,11.40
2018-11-27T00:36:14.079Z,11.10
2018-11-27T00:37:14.052Z,11.20
2018-11-27T00:38:14.012Z,10.50
2018-11-27T00:39:13.977Z,10.60
2018-11-27T00:40:13.942Z,10.40
2018-11-27T00:41:13.914Z,9.80
2018-11-27T00:42:13.897Z,10.30
2018-11-27T00:43:13.857Z,10.80
2018-11-27T00:44:13.809Z,10.20
2018-11-27T00:45:13.777Z,9.80
2018-11-27T00:46:13.740Z,10.00
2018-11-27T00:47:13.705Z,9.30
2018-11-27T00:48:13.670Z,9.90
2018-11-27T00:49:13.637Z,9.90
2018-11-27T00:50:13.604Z,10.40
2018-11-27T00:51:13.573Z,10.10
2018-11-27T00:52:13.539Z,10.40
2018-11-27T00:53:13.502Z,10.20
2018-11-27T00:54:13.469Z,9.60
2018-11-27T00:55:13.434Z,9.60
2018-11-27T00:56:13.399Z,9.90
2018-11-27T00:57:13.366Z,10.60
2018-11-27T00:58:13.331Z,10.20
2018-11-27T00:59:13.300Z,9.70
2018-11-27T01:00:13.473Z,9.60
2018-11-27T01:01:13.230Z,9.10
2018-11-27T01:02:13.200Z,9.10
2018-11-27T01:03:13.161Z,9.10
2018-11-27T01:05:13.093Z,9.00
2018-11-27T01:06:13.076Z,8.80
2018-11-27T01:07:13.029Z,9.10
2018-11-27T01:18:04.044Z,7.00
2018-11-27T01:19:02.956Z,6.70
2018-11-27T01:20:02.918Z,6.60
2018-11-27T01:21:02.884Z,6.30
2018-11-27T01:22:02.847Z,6.90
2018-11-27T01:23:02.813Z,6.30
2018-11-27T01:24:02.778Z,6.60
2018-11-27T01:25:02.745Z,6.50
2018-11-27T01:26:02.710Z,6.90
2018-11-27T01:27:02.674Z,6.00
2018-11-27T01:28:02.637Z,6.20
2018-11-27T01:29:02.603Z,6.80
2018-11-27T01:30:02.572Z,6.60
2018-11-27T01:31:02.533Z,7.10
2018-11-27T01:32:02.505Z,7.10
2018-11-27T01:33:02.469Z,6.70
2018-11-27T01:34:02.432Z,6.90
2018-11-27T01:35:02.399Z,6.90
2018-11-27T01:36:02.365Z,6.90
2018-11-27T01:37:02.330Z,7.60
2018-11-27T01:38:02.295Z,6.70
2018-11-27T01:39:02.262Z,7.50
2018-11-27T01:40:02.228Z,7.00
2018-11-27T01:41:02.192Z,7.50
2018-11-27T01:42:02.159Z,7.50
2018-11-27T01:43:02.124Z,7.50
2018-11-27T01:44:02.089Z,8.00
2018-11-27T01:45:02.063Z,7.90
2018-11-27T01:46:02.022Z,7.80
2018-11-27T01:47:01.994Z,8.70
2018-11-27T01:48:01.959Z,8.70
2018-11-27T01:49:01.924Z,9.20
2018-11-27T01:50:01.888Z,8.80
2018-11-27T01:51:01.861Z,9.40
2018-11-27T01:52:01.819Z,8.50
2018-11-27T01:53:01.790Z,9.70
2018-11-27T01:54:01.751Z,9.90
2018-11-27T01:55:01.718Z,9.30
2018-11-27T01:56:01.684Z,9.60
2018-11-27T01:57:01.649Z,10.20
2018-11-27T01:58:01.616Z,11.70
2018-11-27T01:59:01.582Z,11.60
2018-11-27T02:00:01.549Z,10.70
2018-11-27T02:01:01.519Z,10.80
2018-11-27T02:02:01.480Z,11.30
2018-11-27T02:03:01.445Z,11.20
2018-11-27T02:04:01.413Z,12.20
2018-11-27T02:05:01.380Z,11.70
2018-11-27T02:06:01.347Z,11.80
2018-11-27T02:07:01.311Z,12.20
2018-11-27T02:08:01.277Z,12.50
2018-11-27T02:09:01.244Z,13.50
2018-11-27T02:10:01.218Z,13.30
2018-11-27T02:11:01.175Z,13.30
2018-11-27T02:12:01.143Z,14.40
2018-11-27T02:13:01.505Z,14.50
2018-11-27T02:14:01.076Z,14.20
2018-11-27T02:15:01.041Z,15.10
2018-11-27T02:16:01.010Z,15.30
2018-11-27T02:17:00.973Z,15.10
2018-11-27T02:18:00.942Z,13.70
2018-11-27T02:19:00.904Z,13.80
2018-11-27T02:20:00.872Z,14.90
2018-11-27T02:21:00.839Z,15.60
2018-11-27T02:22:00.806Z,15.90
2018-11-27T02:23:00.771Z,15.30
2018-11-27T02:24:00.739Z,15.80
2018-11-27T02:25:00.702Z,16.00
2018-11-27T02:26:00.670Z,14.90
2018-11-27T02:27:00.638Z,16.80
2018-11-27T02:28:00.607Z,17.40
2018-11-27T02:29:00.569Z,17.80
2018-11-27T02:30:00.535Z,18.00
2018-11-27T02:31:00.500Z,18.30
2018-11-27T02:32:00.468Z,18.30
2018-11-27T02:33:00.434Z,19.00
2018-11-27T02:34:00.401Z,18.80
2018-11-27T02:35:00.366Z,19.40
2018-11-27T02:36:00.331Z,19.30
2018-11-27T02:37:00.300Z,19.70
2018-11-27T02:38:00.264Z,19.60
2018-11-27T02:39:00.232Z,19.90
2018-11-27T02:40:00.197Z,18.30
2018-11-27T02:41:00.164Z,19.50
2018-11-27T02:42:00.130Z,18.80
2018-11-27T02:43:00.095Z,18.80
2018-11-27T02:44:00.062Z,19.70
2018-11-27T02:45:00.030Z,19.30
2018-11-27T02:45:59.994Z,19.30
2018-11-27T02:46:59.959Z,18.90
2018-11-27T02:47:59.928Z,19.40
2018-11-27T02:48:59.893Z,18.10
2018-11-27T02:49:59.859Z,19.30
2018-11-27T02:50:59.826Z,19.20
2018-11-27T02:51:59.800Z,20.10
2018-11-27T02:52:59.762Z,19.90
2018-11-27T02:53:59.725Z,19.40
2018-11-27T02:54:59.689Z,19.70
2018-11-27T02:55:59.662Z,19.60
2018-11-27T02:56:59.623Z,19.10
2018-11-27T02:57:59.592Z,19.20
2018-11-27T02:58:59.556Z,18.80
2018-11-27T02:59:59.521Z,19.10
2018-11-27T03:00:59.490Z,18.60
2018-11-27T03:01:59.454Z,18.50
2018-11-27T03:03:00.652Z,19.50
2018-11-27T03:03:59.388Z,18.00
2018-11-27T03:04:59.355Z,17.80
2018-11-27T03:05:59.321Z,17.80
2018-11-27T03:06:59.287Z,17.50
2018-11-27T03:07:59.253Z,17.70
2018-11-27T03:08:59.221Z,17.50
2018-11-27T03:09:59.186Z,18.60
2018-11-27T03:10:59.153Z,17.90
2018-11-27T03:11:59.122Z,18.00
2018-11-27T03:12:59.084Z,16.90
2018-11-27T03:13:59.054Z,18.90
2018-11-27T03:14:59.018Z,16.70
2018-11-27T03:15:58.992Z,17.90
2018-11-27T03:16:58.955Z,17.10
2018-11-27T03:17:58.920Z,17.50
2018-11-27T03:18:58.882Z,16.80
2018-11-27T03:19:58.850Z,18.10
2018-11-27T03:20:58.815Z,17.30
2018-11-27T03:21:58.787Z,18.20
2018-11-27T03:22:58.751Z,17.80
2018-11-27T03:23:58.714Z,17.90
2018-11-27T03:24:58.703Z,17.40
2018-11-27T03:25:58.650Z,17.40
2018-11-27T03:26:58.616Z,17.40
2018-11-27T03:27:58.580Z,17.70
2018-11-27T03:28:58.549Z,17.90
2018-11-27T03:29:58.514Z,17.20
2018-11-27T03:30:58.481Z,17.10
2018-11-27T03:31:58.449Z,18.20
2018-11-27T03:32:58.414Z,18.10
2018-11-27T03:33:58.392Z,17.10
2018-11-27T03:34:58.347Z,18.70
2018-11-27T03:35:58.314Z,17.50
2018-11-27T03:36:58.280Z,17.50
2018-11-27T03:37:58.250Z,18.90
2018-11-27T03:38:58.261Z,18.00
2018-11-27T03:39:58.181Z,17.20
2018-11-27T03:40:58.146Z,17.70
2018-11-27T03:41:58.129Z,17.10
2018-11-27T03:42:58.080Z,16.70
2018-11-27T03:43:58.048Z,16.70
2018-11-27T03:44:58.013Z,17.40
2018-11-27T03:45:57.980Z,17.00
2018-11-27T03:46:57.949Z,16.10
2018-11-27T03:47:57.912Z,16.90
2018-11-27T03:48:57.880Z,16.40
2018-11-27T03:49:57.850Z,17.10
2018-11-27T03:50:57.813Z,16.30
2018-11-27T03:51:57.778Z,16.70
2018-11-27T03:52:57.746Z,16.70
2018-11-27T03:53:57.711Z,16.50
2018-11-27T03:54:57.677Z,16.50
2018-11-27T03:55:57.644Z,16.90
2018-11-27T03:56:57.614Z,16.60
2018-11-27T03:57:57.580Z,15.50
2018-11-27T03:58:57.545Z,16.90
2018-11-27T03:59:57.513Z,15.80
2018-11-27T04:00:57.479Z,15.90
2018-11-27T04:01:57.488Z,16.10
2018-11-27T04:02:57.410Z,17.50
2018-11-27T04:03:57.379Z,17.20
2018-11-27T04:04:57.344Z,16.10
2018-11-27T04:05:57.313Z,16.10
2018-11-27T04:06:57.279Z,16.80
2018-11-27T04:07:57.545Z,16.20
2018-11-27T04:08:57.214Z,16.40
2018-11-27T04:09:57.176Z,16.10
2018-11-27T04:10:57.144Z,16.40
2018-11-27T04:11:57.112Z,16.60
2018-11-27T04:12:57.077Z,16.60
2018-11-27T04:13:57.044Z,16.10
2018-11-27T04:14:57.013Z,15.70
2018-11-27T04:15:56.977Z,14.90
2018-11-27T04:16:56.944Z,16.20
2018-11-27T04:17:56.910Z,15.30
2018-11-27T04:18:56.876Z,16.20
2018-11-27T04:19:56.852Z,15.50
2018-11-27T04:20:56.826Z,15.70
2018-11-27T04:21:56.785Z,16.40
2018-11-27T04:22:56.744Z,15.20
2018-11-27T04:23:56.710Z,15.50
2018-11-27T04:24:56.678Z,16.30
2018-11-27T04:25:56.643Z,16.20
2018-11-27T04:26:56.611Z,15.60
2018-11-27T04:27:56.578Z,15.20
2018-11-27T04:28:56.544Z,14.80
2018-11-27T04:29:56.509Z,15.60
2018-11-27T04:30:56.476Z,15.60
2018-11-27T04:31:56.443Z,15.10
2018-11-27T04:32:56.408Z,15.30
2018-11-27T04:33:56.377Z,15.80
2018-11-27T04:34:56.342Z,15.00
2018-11-27T04:35:56.309Z,15.60
2018-11-27T04:36:56.276Z,14.80
2018-11-27T04:37:56.242Z,15.30
2018-11-27T04:38:56.209Z,14.60
2018-11-27T04:39:56.178Z,14.70
2018-11-27T04:40:56.142Z,15.70
2018-11-27T04:41:56.147Z,15.00
2018-11-27T04:42:56.075Z,14.00
2018-11-27T04:43:56.042Z,14.80
2018-11-27T04:44:56.009Z,14.70
2018-11-27T04:45:55.975Z,14.70
2018-11-27T04:46:55.948Z,15.10
2018-11-27T04:47:55.909Z,15.20
2018-11-27T04:48:55.874Z,14.80
2018-11-27T04:49:55.844Z,14.90
2018-11-27T04:50:55.817Z,14.80
2018-11-27T04:51:55.777Z,15.20
2018-11-27T04:52:55.751Z,15.10
2018-11-27T04:53:55.710Z,14.20
2018-11-27T04:54:55.677Z,14.80
2018-11-27T04:55:55.642Z,14.60
2018-11-27T04:56:55.609Z,14.50
2018-11-27T04:57:55.578Z,15.30
2018-11-27T04:58:55.543Z,15.60
2018-11-27T04:59:55.507Z,16.40
2018-11-27T05:00:55.475Z,15.10
2018-11-27T05:01:55.440Z,16.00
2018-11-27T05:02:55.407Z,16.40
2018-11-27T05:03:55.375Z,14.80
2018-11-27T05:04:55.340Z,14.80
2018-11-27T05:05:55.308Z,14.60
2018-11-27T05:06:55.279Z,14.60
2018-11-27T05:07:55.241Z,14.90
2018-11-27T05:08:55.211Z,15.70
2018-11-27T05:09:55.177Z,14.50
2018-11-27T05:10:55.140Z,14.60
2018-11-27T05:11:55.107Z,15.20
2018-11-27T05:12:55.080Z,13.90
2018-11-27T05:13:55.040Z,14.50
2018-11-27T05:14:55.006Z,15.20
2018-11-27T05:15:54.973Z,15.00
2018-11-27T05:16:54.940Z,14.80
2018-11-27T05:17:54.906Z,14.70
2018-11-27T05:18:54.872Z,14.90
2018-11-27T05:19:54.866Z,14.70
2018-11-27T05:20:54.806Z,14.00
2018-11-27T05:21:54.774Z,14.50
2018-11-27T05:22:54.740Z,14.20
2018-11-27T05:23:54.706Z,15.90
2018-11-27T05:24:54.673Z,15.00
2018-11-27T05:25:54.640Z,14.70
2018-11-27T05:26:54.609Z,14.30
2018-11-27T05:27:54.575Z,14.60
2018-11-27T05:28:54.539Z,14.70
2018-11-27T05:29:54.505Z,15.00
2018-11-27T05:30:54.471Z,14.80
2018-11-27T05:31:54.439Z,15.50
2018-11-27T05:32:54.406Z,15.10
2018-11-27T05:33:54.405Z,15.50
2018-11-27T05:34:54.338Z,14.80
2018-11-27T05:35:54.306Z,14.40
2018-11-27T05:36:54.272Z,15.00
2018-11-27T05:37:54.242Z,14.50
2018-11-27T05:38:54.206Z,15.00
2018-11-27T05:39:54.171Z,15.30
2018-11-27T05:40:54.142Z,14.10
2018-11-27T05:41:54.106Z,15.30
2018-11-27T05:42:54.071Z,15.60
2018-11-27T05:43:54.046Z,15.30
2018-11-27T05:44:54.005Z,15.70
2018-11-27T05:45:53.974Z,15.70
2018-11-27T05:46:53.939Z,15.30
2018-11-27T05:47:53.907Z,15.80
2018-11-27T05:48:53.875Z,15.40
2018-11-27T05:49:53.839Z,15.90
2018-11-27T05:50:53.813Z,15.80
2018-11-27T05:51:53.773Z,15.60
2018-11-27T05:52:53.738Z,14.60
2018-11-27T05:53:53.707Z,15.60
2018-11-27T05:54:53.673Z,16.10
2018-11-27T05:55:53.638Z,15.00
2018-11-27T05:56:53.608Z,15.40
2018-11-27T05:57:53.572Z,14.70
2018-11-27T05:58:53.538Z,16.30
2018-11-27T05:59:53.509Z,15.40
2018-11-27T06:00:53.476Z,15.50
2018-11-27T06:01:53.440Z,15.80
2018-11-27T06:02:53.408Z,14.70
2018-11-27T06:03:53.372Z,15.50
2018-11-27T06:04:53.340Z,13.90
2018-11-27T06:05:53.307Z,15.20
2018-11-27T06:06:53.271Z,14.30
2018-11-27T06:07:53.240Z,14.00
2018-11-27T06:08:53.207Z,15.40
2018-11-27T06:09:53.172Z,15.30
2018-11-27T06:10:53.139Z,15.30
2018-11-27T06:11:53.105Z,15.10
2018-11-27T06:12:53.073Z,15.00
2018-11-27T06:13:53.041Z,15.20
2018-11-27T06:14:53.005Z,14.50
2018-11-27T06:15:52.974Z,14.30
2018-11-27T06:16:52.939Z,14.30
2018-11-27T06:17:52.911Z,15.00
2018-11-27T06:18:52.873Z,14.30
2018-11-27T06:19:52.842Z,14.10
2018-11-27T06:20:52.810Z,14.20
2018-11-27T06:21:52.775Z,13.90
2018-11-27T06:22:52.738Z,14.20
2018-11-27T06:23:52.707Z,14.10
2018-11-27T06:24:52.673Z,13.90
2018-11-27T06:25:52.641Z,15.10
2018-11-27T06:26:52.607Z,14.60
2018-11-27T06:27:52.574Z,14.50
2018-11-27T06:28:52.541Z,13.90
2018-11-27T06:29:52.509Z,13.90
2018-11-27T06:30:52.475Z,15.20
2018-11-27T06:31:52.440Z,14.90
2018-11-27T06:32:52.412Z,14.40
2018-11-27T06:33:52.375Z,14.10
2018-11-27T06:34:52.344Z,15.30
2018-11-27T06:35:52.308Z,15.00
2018-11-27T06:36:52.278Z,15.80
2018-11-27T06:37:52.242Z,14.80
2018-11-27T06:38:52.208Z,14.80
2018-11-27T06:39:52.181Z,16.20
2018-11-27T06:40:52.143Z,15.20
2018-11-27T06:41:52.128Z,16.10
2018-11-27T06:42:52.079Z,17.00
2018-11-27T06:43:52.042Z,15.60
2018-11-27T06:44:52.008Z,16.70
2018-11-27T06:45:51.981Z,15.90
2018-11-27T06:46:51.942Z,16.50
2018-11-27T06:47:51.909Z,16.30
2018-11-27T06:48:51.877Z,15.90
2018-11-27T06:49:51.843Z,15.40
2018-11-27T06:50:51.812Z,15.50
2018-11-27T06:51:51.778Z,15.30
2018-11-27T06:52:51.742Z,15.30
2018-11-27T06:53:51.714Z,15.30
2018-11-27T06:54:51.676Z,14.90
2018-11-27T06:55:51.643Z,15.40
2018-11-27T06:56:51.610Z,15.10
2018-11-27T06:57:51.585Z,16.00
2018-11-27T06:58:51.542Z,15.90
2018-11-27T06:59:51.509Z,15.50
2018-11-27T07:00:51.477Z,15.60
2018-11-27T07:01:51.444Z,15.50
2018-11-27T07:02:51.411Z,17.30
2018-11-27T07:03:51.377Z,16.50
2018-11-27T07:04:51.346Z,16.20
2018-11-27T07:05:51.310Z,16.20
2018-11-27T07:06:51.276Z,16.00
2018-11-27T07:07:51.247Z,16.70
2018-11-27T07:08:51.210Z,16.90
2018-11-27T07:09:51.179Z,15.80
2018-11-27T07:10:51.144Z,15.40
2018-11-27T07:11:51.115Z,16.00
2018-11-27T07:12:51.080Z,15.70
2018-11-27T07:13:51.044Z,14.80
2018-11-27T07:14:51.011Z,16.00
2018-11-27T07:15:50.981Z,15.40
2018-11-27T07:16:50.945Z,16.20
2018-11-27T07:17:50.914Z,15.50
2018-11-27T07:18:50.882Z,16.10
2018-11-27T07:19:50.850Z,14.30
2018-11-27T07:20:50.814Z,15.20
2018-11-27T07:21:50.780Z,15.10
2018-11-27T07:22:50.748Z,15.70
2018-11-27T07:23:50.713Z,15.90
2018-11-27T07:24:50.681Z,16.60
2018-11-27T07:25:50.652Z,15.30
2018-11-27T07:26:52.901Z,15.20
2018-11-27T07:27:50.579Z,16.30
2018-11-27T07:28:50.547Z,16.90
2018-11-27T07:29:50.514Z,16.00
2018-11-27T07:30:50.481Z,16.50
2018-11-27T07:31:50.447Z,16.20
2018-11-27T07:32:50.415Z,16.60
2018-11-27T07:33:50.381Z,17.00
2018-11-27T07:34:50.347Z,16.20
2018-11-27T07:35:50.313Z,16.70
2018-11-27T07:36:50.281Z,16.50
2018-11-27T07:37:50.248Z,17.10
2018-11-27T07:38:50.215Z,17.60
2018-11-27T07:39:50.187Z,15.90
2018-11-27T07:40:50.149Z,16.50
2018-11-27T07:41:50.116Z,16.60
2018-11-27T07:42:50.082Z,17.30
2018-11-27T07:43:50.051Z,16.00
2018-11-27T07:44:50.016Z,16.70
2018-11-27T07:45:55.084Z,16.40
2018-11-27T07:46:49.950Z,17.00
2018-11-27T07:47:49.915Z,16.00
2018-11-27T07:48:49.886Z,16.90
2018-11-27T07:49:49.855Z,16.80
2018-11-27T07:50:49.822Z,16.50
2018-11-27T07:51:49.784Z,15.80
2018-11-27T07:52:49.750Z,15.80
2018-11-27T07:53:49.719Z,16.60
2018-11-27T07:54:49.693Z,16.20
2018-11-27T07:55:49.653Z,16.20
2018-11-27T07:56:49.622Z,16.80
2018-11-27T07:57:49.590Z,15.90
2018-11-27T07:58:49.553Z,16.20
2018-11-27T07:59:49.523Z,16.60
2018-11-27T08:00:49.487Z,16.90
2018-11-27T08:01:49.455Z,16.30
2018-11-27T08:02:49.421Z,16.40
2018-11-27T08:03:49.387Z,15.60
2018-11-27T08:04:49.355Z,15.80
2018-11-27T08:05:49.321Z,15.70
2018-11-27T08:06:49.288Z,16.00
2018-11-27T08:07:49.262Z,15.60
2018-11-27T08:08:49.222Z,15.30
2018-11-27T08:09:49.194Z,15.50
2018-11-27T08:10:49.159Z,16.30
2018-11-27T08:11:49.130Z,15.60
2018-11-27T08:12:49.092Z,16.20
2018-11-27T08:13:49.058Z,15.90
2018-11-27T08:14:49.025Z,15.20
2018-11-27T08:15:48.992Z,15.70
2018-11-27T08:16:48.961Z,16.10
2018-11-27T08:17:48.928Z,15.80
2018-11-27T08:18:48.894Z,16.00
2018-11-27T08:19:48.861Z,15.20
2018-11-27T08:20:48.829Z,15.40
2018-11-27T08:21:48.795Z,16.30
2018-11-27T08:22:48.766Z,16.30
2018-11-27T08:23:48.734Z,15.30
2018-11-27T08:24:48.698Z,15.30
2018-11-27T08:25:48.672Z,15.60
2018-11-27T08:26:48.632Z,14.90
2018-11-27T08:27:48.600Z,15.40
2018-11-27T08:28:48.572Z,15.50
2018-11-27T08:29:48.535Z,14.20
2018-11-27T08:30:48.504Z,14.90
2018-11-27T08:31:48.470Z,15.10
2018-11-27T08:32:48.439Z,14.10
2018-11-27T08:33:48.408Z,16.00
2018-11-27T08:34:48.372Z,15.20
2018-11-27T08:35:48.341Z,15.20
2018-11-27T08:36:48.307Z,14.00
2018-11-27T08:37:48.275Z,14.60
2018-11-27T08:38:48.240Z,14.70
2018-11-27T08:39:48.209Z,13.80
2018-11-27T08:40:48.175Z,14.10
2018-11-27T08:41:48.145Z,14.20
2018-11-27T08:42:48.114Z,14.90
2018-11-27T08:43:48.081Z,14.50
2018-11-27T08:44:48.047Z,14.00
2018-11-27T08:45:48.014Z,14.10
2018-11-27T08:46:47.984Z,13.40
2018-11-27T08:47:47.961Z,13.80
2018-11-27T08:48:47.918Z,14.00
2018-11-27T08:49:47.893Z,14.10
2018-11-27T08:50:47.851Z,14.10
2018-11-27T08:51:47.820Z,14.10
2018-11-27T08:52:47.787Z,13.50
2018-11-27T08:53:47.756Z,13.50
2018-11-27T08:54:47.723Z,13.90
2018-11-27T08:55:47.690Z,14.10
2018-11-27T08:56:47.668Z,13.90
2018-11-27T08:57:47.627Z,13.20
2018-11-27T08:58:47.595Z,13.50
2018-11-27T08:59:47.563Z,13.40
2018-11-27T09:00:47.530Z,13.80
2018-11-27T09:01:47.499Z,13.10
2018-11-27T09:02:47.465Z,12.80
2018-11-27T09:03:47.433Z,13.30
2018-11-27T09:04:47.403Z,13.30
2018-11-27T09:05:47.370Z,13.90
2018-11-27T09:06:47.338Z,13.40
2018-11-27T09:07:47.306Z,14.40
2018-11-27T09:08:47.274Z,13.90
2018-11-27T09:09:47.247Z,14.20
2018-11-27T09:10:47.215Z,13.40
2018-11-27T09:11:47.178Z,13.20
2018-11-27T09:12:47.147Z,13.80
2018-11-27T09:13:47.114Z,12.90
2018-11-27T09:14:47.083Z,12.60
2018-11-27T09:15:47.054Z,13.80
2018-11-27T09:16:47.021Z,13.40
2018-11-27T09:17:46.987Z,12.80
2018-11-27T09:18:46.958Z,13.60
2018-11-27T09:19:46.921Z,13.10
2018-11-27T09:20:46.893Z,13.20
2018-11-27T09:21:46.864Z,12.10
2018-11-27T09:22:46.832Z,13.30
2018-11-27T09:23:46.796Z,12.90
2018-11-27T09:24:46.763Z,12.80
2018-11-27T09:25:46.735Z,12.30
2018-11-27T09:26:46.703Z,12.70
2018-11-27T09:27:46.668Z,12.30
2018-11-27T09:28:46.638Z,12.30
2018-11-27T09:29:46.604Z,12.80
2018-11-27T09:30:46.583Z,12.60
2018-11-27T09:31:46.544Z,11.50
2018-11-27T09:32:46.511Z,11.80
2018-11-27T09:33:46.482Z,12.40
2018-11-27T09:34:46.449Z,12.90
2018-11-27T09:35:46.413Z,12.10
2018-11-27T09:36:46.384Z,11.90
2018-11-27T09:37:46.367Z,11.90
2018-11-27T09:38:46.320Z,11.70
2018-11-27T09:39:46.289Z,11.60
2018-11-27T09:40:46.256Z,11.70
2018-11-27T09:41:46.227Z,11.40
2018-11-27T09:42:46.196Z,10.80
2018-11-27T09:43:46.172Z,11.40
2018-11-27T09:44:46.131Z,10.70
2018-11-27T09:45:46.100Z,11.20
2018-11-27T09:46:46.067Z,11.40
2018-11-27T09:47:46.036Z,10.20
2018-11-27T09:48:46.006Z,10.80
2018-11-27T09:49:45.973Z,10.60
2018-11-27T09:50:45.943Z,11.50
2018-11-27T09:51:45.915Z,10.80
2018-11-27T09:52:45.880Z,10.60
2018-11-27T09:53:45.849Z,9.70
2018-11-27T09:54:45.816Z,10.40
2018-11-27T09:55:45.784Z,10.70
2018-11-27T09:56:45.761Z,11.00
2018-11-27T09:57:45.725Z,10.30
2018-11-27T09:58:45.697Z,10.10
2018-11-27T09:59:45.659Z,10.20
2018-11-27T10:00:45.628Z,9.90
2018-11-27T10:01:45.598Z,10.00
2018-11-27T10:02:45.565Z,10.60
2018-11-27T10:03:45.533Z,10.30
2018-11-27T10:04:45.503Z,10.70
2018-11-27T10:05:45.474Z,10.30
2018-11-27T10:06:45.439Z,10.60
2018-11-27T10:07:45.414Z,10.00
2018-11-27T10:08:45.381Z,9.90
2018-11-27T10:09:45.347Z,9.90
2018-11-27T10:10:45.318Z,10.20
2018-11-27T10:11:45.282Z,10.40
2018-11-27T10:12:45.255Z,9.50
2018-11-27T10:13:45.220Z,9.90
2018-11-27T10:14:45.189Z,10.50
2018-11-27T10:15:45.158Z,9.70
2018-11-27T10:16:45.126Z,10.10
2018-11-27T10:17:45.103Z,9.80
2018-11-27T10:18:45.065Z,9.70
2018-11-27T10:19:45.034Z,9.60
2018-11-27T10:20:45.003Z,9.30
2018-11-27T10:21:44.977Z,9.80
2018-11-27T10:22:44.942Z,10.10
2018-11-27T10:23:44.909Z,9.40
2018-11-27T10:24:44.886Z,9.50
2018-11-27T10:25:44.854Z,9.70
2018-11-27T10:26:44.857Z,9.80
2018-11-27T10:27:44.784Z,9.50
2018-11-27T10:28:44.755Z,9.30
2018-11-27T10:29:44.721Z,10.10
2018-11-27T10:30:44.689Z,8.60
2018-11-27T10:31:44.660Z,10.10
2018-11-27T10:32:44.629Z,9.90
2018-11-27T10:33:44.612Z,9.10
2018-11-27T10:34:44.566Z,10.50
2018-11-27T10:35:44.534Z,9.90
2018-11-27T10:36:44.506Z,9.70
2018-11-27T10:37:44.473Z,9.10
2018-11-27T10:38:44.442Z,9.20
2018-11-27T10:39:44.411Z,9.40
2018-11-27T10:40:44.391Z,9.40
2018-11-27T10:41:44.350Z,9.90
2018-11-27T10:42:44.368Z,9.70
2018-11-27T10:43:44.286Z,9.60
2018-11-27T10:44:44.257Z,10.10
2018-11-27T10:45:44.227Z,10.00
2018-11-27T10:46:44.195Z,9.00
2018-11-27T10:47:44.164Z,8.80
2018-11-27T10:48:44.134Z,9.30
2018-11-27T10:49:44.103Z,8.20
2018-11-27T10:50:44.308Z,9.10
2018-11-27T10:51:44.041Z,9.10
2018-11-27T10:52:44.009Z,9.10
2018-11-27T10:53:43.981Z,9.00
2018-11-27T10:54:43.953Z,9.30
2018-11-27T10:55:43.919Z,8.50
2018-11-27T10:56:43.888Z,8.50
2018-11-27T10:57:43.857Z,8.50
2018-11-27T10:58:43.827Z,8.60
2018-11-27T10:59:43.800Z,8.30
2018-11-27T11:00:43.770Z,8.90
2018-11-27T11:01:43.739Z,8.50
2018-11-27T11:02:43.704Z,8.40
2018-11-27T11:03:43.673Z,8.50
2018-11-27T11:04:43.654Z,7.80
2018-11-27T11:05:43.612Z,7.90
2018-11-27T11:06:43.582Z,8.10
2018-11-27T11:07:43.552Z,8.50
2018-11-27T11:08:43.523Z,7.90
2018-11-27T11:09:43.491Z,7.80
2018-11-27T11:10:43.461Z,7.50
2018-11-27T11:11:43.432Z,7.60
2018-11-27T11:12:43.416Z,7.70
2018-11-27T11:13:43.369Z,6.80
2018-11-27T11:14:43.341Z,6.80
2018-11-27T11:15:43.311Z,6.90
2018-11-27T11:16:43.282Z,6.90
2018-11-27T11:17:43.253Z,6.90
2018-11-27T11:18:43.221Z,7.20
2018-11-27T11:19:43.196Z,7.30
2018-11-27T11:20:43.206Z,7.00
2018-11-27T11:21:43.133Z,6.90
2018-11-27T11:22:43.103Z,7.00
2018-11-27T11:23:43.079Z,7.50
2018-11-27T11:24:43.047Z,6.50
2018-11-27T11:25:45.840Z,6.30
2018-11-27T11:26:42.988Z,6.50
2018-11-27T11:27:43.162Z,6.90
2018-11-27T11:28:43.132Z,6.60
2018-11-27T11:29:42.901Z,7.10
2018-11-27T11:30:42.873Z,6.80
2018-11-27T11:31:42.847Z,6.50
2018-11-27T11:32:42.816Z,6.60
2018-11-27T11:33:42.791Z,6.30
2018-11-27T11:34:42.762Z,6.90
2018-11-27T11:35:42.729Z,6.80
2018-11-27T11:36:42.703Z,6.60
2018-11-27T11:37:42.672Z,6.30
2018-11-27T11:38:42.644Z,6.80
2018-11-27T11:39:42.618Z,7.20
2018-11-27T11:40:42.587Z,7.10
2018-11-27T11:41:42.560Z,6.50
2018-11-27T11:42:42.532Z,6.10
2018-11-27T11:43:42.503Z,6.50
2018-11-27T11:44:42.476Z,6.30
2018-11-27T11:45:42.449Z,6.70
2018-11-27T11:46:42.418Z,7.00
2018-11-27T11:47:42.391Z,6.70
2018-11-27T11:48:42.362Z,6.60
2018-11-27T11:49:42.346Z,6.70
2018-11-27T11:50:42.306Z,6.50
2018-11-27T11:51:42.277Z,6.40
2018-11-27T11:52:45.370Z,6.50
2018-11-27T11:53:42.220Z,6.50
2018-11-27T11:54:42.191Z,6.60
2018-11-27T11:55:42.164Z,7.00
2018-11-27T11:56:42.144Z,7.00
2018-11-27T11:57:42.107Z,6.90
2018-11-27T11:58:42.077Z,7.50
2018-11-27T11:59:42.078Z,6.90
2018-11-27T12:00:42.026Z,7.20
2018-11-27T12:01:41.993Z,6.80
2018-11-27T12:02:41.965Z,7.10
2018-11-27T12:03:41.970Z,6.60
2018-11-27T12:04:41.908Z,6.60
2018-11-27T12:05:41.881Z,6.80
2018-11-27T12:06:41.849Z,6.50
2018-11-27T12:07:41.864Z,6.60
2018-11-27T12:08:41.793Z,6.80
2018-11-27T12:09:41.764Z,6.30
2018-11-27T12:10:41.741Z,6.80
2018-11-27T12:11:41.708Z,6.60
2018-11-27T12:12:41.676Z,6.40
2018-11-27T12:13:41.649Z,6.30
2018-11-27T12:14:41.640Z,6.20
2018-11-27T12:15:41.657Z,6.30
2018-11-27T12:16:41.579Z,6.60
2018-11-27T12:17:41.585Z,6.40
2018-11-27T12:18:41.504Z,6.50
2018-11-27T12:19:41.486Z,6.50
2018-11-27T12:20:41.456Z,7.20
2018-11-27T12:21:41.425Z,7.10
2018-11-27T12:22:41.395Z,6.70
2018-11-27T12:23:41.365Z,7.10
2018-11-27T12:24:41.328Z,7.50
2018-11-27T12:25:41.297Z,7.40
2018-11-27T12:26:41.269Z,7.20
2018-11-27T12:27:41.236Z,7.70
2018-11-27T12:28:41.206Z,7.80
2018-11-27T12:29:41.178Z,7.90
2018-11-27T12:30:41.144Z,7.70
2018-11-27T12:31:41.123Z,7.40
2018-11-27T12:32:41.085Z,7.30
2018-11-27T12:33:41.056Z,7.60
2018-11-27T12:34:41.025Z,7.50
2018-11-27T12:35:40.996Z,8.20
2018-11-27T12:36:40.965Z,8.00
2018-11-27T12:37:40.941Z,7.40
2018-11-27T12:38:40.902Z,7.60
2018-11-27T12:39:40.882Z,7.50
2018-11-27T12:40:40.843Z,7.10
2018-11-27T12:41:40.817Z,7.70
2018-11-27T12:42:40.784Z,7.10
2018-11-27T12:43:40.767Z,7.00
2018-11-27T12:44:40.722Z,7.50
2018-11-27T12:45:40.691Z,7.20
2018-11-27T12:46:40.670Z,7.60
2018-11-27T12:47:40.630Z,8.10
2018-11-27T12:48:40.599Z,8.00
2018-11-27T12:49:40.570Z,7.70
2018-11-27T12:50:40.538Z,7.30
2018-11-27T12:51:40.511Z,6.90
2018-11-27T12:52:40.479Z,8.40
2018-11-27T12:53:40.448Z,8.00
2018-11-27T12:54:40.416Z,8.50
2018-11-27T12:55:40.386Z,8.10
2018-11-27T12:56:43.681Z,7.30
2018-11-27T12:57:40.326Z,7.30
2018-11-27T12:58:40.293Z,7.60
2018-11-27T12:59:40.277Z,7.00
2018-11-27T13:00:40.245Z,7.30
2018-11-27T13:01:40.202Z,6.70
2018-11-27T13:02:40.172Z,6.60
2018-11-27T13:03:40.140Z,7.00
2018-11-27T13:04:40.112Z,6.40
2018-11-27T13:05:40.079Z,7.40
2018-11-27T13:06:40.048Z,8.40
2018-11-27T13:07:40.018Z,8.20
2018-11-27T13:08:39.987Z,8.00
2018-11-27T13:09:39.959Z,7.80
2018-11-27T13:10:39.926Z,8.40